createdAt,value
2022-08-11T00:01:26.884Z,20.02
2022-08-11T00:03:58.103Z,12.63
2022-08-11T00:06:48.270Z,14.32
2022-08-11T00:09:19.967Z,10.65
2022-08-11T00:11:52.007Z,16.48
2022-08-11T00:14:37.137Z,11.65
2022-08-11T00:17:10.343Z,13.02
2022-08-11T00:20:11.560Z,13.77
2022-08-11T00:22:35.617Z,12.35
2022-08-11T00:25:14.010Z,17.35
2022-08-11T00:27:44.475Z,17.42
2022-08-11T00:30:15.656Z,16.08
2022-08-11T00:32:47.622Z,15.10
2022-08-11T00:35:51.967Z,14.48
2022-08-11T00:38:10.399Z,13.40
2022-08-11T00:40:47.097Z,13.95
2022-08-11T00:43:36.723Z,13.52
2022-08-11T00:46:17.683Z,18.75
2022-08-11T00:48:51.440Z,12.30
2022-08-11T00:51:56.751Z,13.00
2022-08-11T00:54:43.113Z,13.32
2022-08-11T00:57:37.046Z,12.18
2022-08-11T01:00:18.555Z,11.80
2022-08-11T01:03:08.873Z,12.02
2022-08-11T01:05:58.741Z,11.73
2022-08-11T01:08:49.263Z,10.82
2022-08-11T01:11:38.857Z,11.18
2022-08-11T01:14:45.578Z,11.25
2022-08-11T01:17:35.754Z,11.00
2022-08-11T01:20:47.805Z,9.93
2022-08-11T01:23:35.358Z,10.70
2022-08-11T01:26:25.119Z,8.80
2022-08-11T01:29:14.723Z,9.80
2022-08-11T01:31:53.215Z,10.40
2022-08-11T01:34:43.239Z,9.00
2022-08-11T01:37:33.235Z,31.15
2022-08-11T01:40:22.803Z,9.10
2022-08-11T01:43:32.084Z,8.32
2022-08-11T01:46:21.707Z,7.95
2022-08-11T01:50:08.854Z,6.43
2022-08-11T01:52:17.871Z,7.93
2022-08-11T01:55:07.830Z,7.10
2022-08-11T01:57:45.040Z,7.22
2022-08-11T02:00:23.561Z,6.28
2022-08-11T02:03:13.477Z,6.78
2022-08-11T02:06:04.522Z,6.57
2022-08-11T02:08:54.174Z,5.18
2022-08-11T02:11:35.703Z,6.13
2022-08-11T02:14:28.794Z,7.20
2022-08-11T02:17:18.714Z,6.68
2022-08-11T02:20:27.972Z,5.75
2022-08-11T02:23:59.538Z,7.00
2022-08-11T02:26:32.312Z,7.07
2022-08-11T02:29:22.851Z,5.82
2022-08-11T02:32:29.635Z,5.70
2022-08-11T02:35:11.087Z,6.85
2022-08-11T02:38:01.148Z,6.43
2022-08-11T02:40:44.970Z,6.57
2022-08-11T02:43:36.341Z,5.95
2022-08-11T02:46:20.471Z,5.82
2022-08-11T02:49:19.241Z,5.05
2022-08-11T02:52:08.886Z,6.03
2022-08-11T02:54:47.628Z,5.53
2022-08-11T02:57:28.717Z,5.00
2022-08-11T03:00:18.948Z,5.75
2022-08-11T03:03:09.111Z,6.63
2022-08-11T03:05:52.635Z,4.90
2022-08-11T03:08:42.538Z,5.63
2022-08-11T03:11:41.886Z,5.47
2022-08-11T03:14:51.236Z,4.53
2022-08-11T03:17:28.730Z,4.82
2022-08-11T03:20:18.367Z,5.40
2022-08-11T03:23:19.694Z,4.18
2022-08-11T03:26:10.092Z,4.57
2022-08-11T03:28:52.501Z,5.00
2022-08-11T03:31:42.148Z,5.32
2022-08-11T03:34:34.213Z,4.38
2022-08-11T03:37:43.422Z,5.15
2022-08-11T03:40:52.961Z,5.00
2022-08-11T03:43:45.708Z,4.35
2022-08-11T03:46:48.535Z,5.00
2022-08-11T03:49:40.644Z,4.30
2022-08-11T03:52:30.624Z,4.43
2022-08-11T03:55:07.083Z,4.30
2022-08-11T03:57:56.969Z,4.30
2022-08-11T04:00:47.121Z,4.78
2022-08-11T04:03:31.120Z,4.68
2022-08-11T04:06:22.429Z,4.35
2022-08-11T04:09:05.137Z,5.30
2022-08-11T04:11:56.425Z,4.82
2022-08-11T04:15:05.021Z,4.63
2022-08-11T04:17:55.581Z,5.88
2022-08-11T04:20:32.921Z,4.65
2022-08-11T04:24:36.492Z,4.80
2022-08-11T04:26:35.698Z,4.57
2022-08-11T04:29:35.931Z,4.30
2022-08-11T04:32:26.868Z,5.05
2022-08-11T04:35:16.876Z,4.78
2022-08-11T04:38:06.958Z,4.57
2022-08-11T04:40:56.926Z,4.88
2022-08-11T04:44:05.797Z,6.93
2022-08-11T04:46:36.509Z,4.80
2022-08-11T04:49:46.057Z,5.10
2022-08-11T04:52:55.378Z,4.10
2022-08-11T04:56:05.101Z,4.47
2022-08-11T04:59:06.773Z,4.57
2022-08-11T05:01:53.744Z,4.57
2022-08-11T05:05:03.017Z,4.60
2022-08-11T05:07:55.070Z,18.30
2022-08-11T05:10:40.001Z,19.38
2022-08-11T05:13:35.052Z,3.83
2022-08-11T05:16:31.941Z,5.30
2022-08-11T05:19:22.573Z,4.25
2022-08-11T05:22:18.123Z,4.63
2022-08-11T05:26:45.330Z,5.35
2022-08-11T05:28:34.235Z,4.05
2022-08-11T05:31:34.209Z,15.40
2022-08-11T05:34:43.773Z,5.10
2022-08-11T05:37:26.730Z,4.65
2022-08-11T05:40:19.894Z,5.28
2022-08-11T05:43:13.382Z,5.72
2022-08-11T05:46:06.226Z,4.68
2022-08-11T05:48:58.766Z,5.40
2022-08-11T05:51:57.210Z,5.70
2022-08-11T05:54:55.350Z,4.95
2022-08-11T05:57:45.511Z,5.75
2022-08-11T06:00:18.990Z,4.55
2022-08-11T06:02:56.622Z,4.47
2022-08-11T06:05:43.503Z,4.72
2022-08-11T06:08:15.410Z,5.07
2022-08-11T06:10:47.451Z,5.70
2022-08-11T06:13:19.084Z,5.30
2022-08-11T06:15:50.790Z,5.55
2022-08-11T06:18:21.742Z,5.63
2022-08-11T06:20:56.707Z,5.60
2022-08-11T06:23:28.882Z,5.05
2022-08-11T06:26:00.787Z,7.22
2022-08-11T06:28:39.470Z,4.72
2022-08-11T06:31:16.854Z,5.80
2022-08-11T06:34:06.498Z,5.85
2022-08-11T06:36:54.281Z,5.45
2022-08-11T06:39:44.226Z,6.95
2022-08-11T06:42:17.308Z,5.63
2022-08-11T06:45:08.918Z,6.38
2022-08-11T06:47:44.709Z,5.80
2022-08-11T06:50:38.002Z,5.25
2022-08-11T06:53:11.432Z,4.47
2022-08-11T06:56:03.792Z,6.85
2022-08-11T06:59:01.049Z,5.10
2022-08-11T07:01:37.911Z,6.70
2022-08-11T07:04:10.479Z,6.43
2022-08-11T07:07:11.246Z,5.68
2022-08-11T07:10:20.439Z,5.97
2022-08-11T07:13:45.004Z,5.60
2022-08-11T07:16:12.276Z,5.55
2022-08-11T07:19:04.997Z,5.53
2022-08-11T07:22:02.599Z,4.22
2022-08-11T07:24:59.561Z,4.05
2022-08-11T07:28:11.911Z,3.50
2022-08-11T07:30:44.436Z,4.32
2022-08-11T07:34:05.344Z,3.97
2022-08-11T07:36:07.997Z,4.20
2022-08-11T07:38:47.364Z,3.97
2022-08-11T07:41:18.628Z,4.30
2022-08-11T07:43:51.220Z,4.88
2022-08-11T07:46:42.204Z,4.30
2022-08-11T07:49:32.851Z,4.72
2022-08-11T07:52:22.928Z,4.28
2022-08-11T07:54:53.371Z,4.95
2022-08-11T07:58:02.209Z,5.35
2022-08-11T08:00:59.178Z,4.45
2022-08-11T08:03:54.368Z,5.13
2022-08-11T08:06:45.282Z,4.85
2022-08-11T08:09:36.246Z,5.47
2022-08-11T08:12:26.554Z,4.55
2022-08-11T08:15:17.487Z,5.20
2022-08-11T08:18:20.641Z,4.90
2022-08-11T08:20:51.157Z,3.97
2022-08-11T08:23:34.580Z,3.88
2022-08-11T08:26:16.714Z,4.93
2022-08-11T08:28:47.993Z,3.75
2022-08-11T08:31:18.727Z,4.20
2022-08-11T08:33:48.995Z,5.05
2022-08-11T08:36:21.951Z,13.77
2022-08-11T08:38:53.776Z,11.55
2022-08-11T08:41:31.906Z,4.70
2022-08-11T08:44:34.761Z,4.43
2022-08-11T08:46:57.473Z,5.03
2022-08-11T08:49:40.477Z,5.05
2022-08-11T08:52:25.216Z,5.20
2022-08-11T08:55:04.633Z,5.45
2022-08-11T08:57:39.693Z,6.03
2022-08-11T09:00:12.961Z,5.50
2022-08-11T09:02:46.873Z,5.15
2022-08-11T09:05:19.875Z,5.88
2022-08-11T09:07:50.379Z,4.20
2022-08-11T09:10:22.440Z,4.80
2022-08-11T09:12:53.144Z,4.63
2022-08-11T09:15:23.806Z,4.82
2022-08-11T09:18:02.954Z,5.43
2022-08-11T09:20:35.656Z,5.38
2022-08-11T09:24:07.387Z,5.30
2022-08-11T09:26:37.395Z,5.43
2022-08-11T09:29:08.669Z,6.10
2022-08-11T09:31:40.458Z,4.90
2022-08-11T09:34:14.219Z,4.78
2022-08-11T09:37:06.422Z,4.38
2022-08-11T09:39:59.033Z,3.90
2022-08-11T09:42:48.926Z,4.22
2022-08-11T09:45:20.822Z,4.80
2022-08-11T09:47:51.290Z,4.82
2022-08-11T09:50:22.580Z,4.50
2022-08-11T09:53:35.156Z,4.90
2022-08-11T09:55:43.944Z,6.88
2022-08-11T09:58:41.680Z,4.40
2022-08-11T10:01:09.383Z,5.05
2022-08-11T10:03:41.442Z,4.78
2022-08-11T10:06:34.225Z,3.53
2022-08-11T10:09:06.816Z,3.95
2022-08-11T10:11:39.225Z,4.68
2022-08-11T10:14:33.203Z,4.35
2022-08-11T10:17:08.691Z,4.43
2022-08-11T10:19:39.507Z,4.63
2022-08-11T10:22:32.134Z,4.60
2022-08-11T10:25:23.783Z,3.90
2022-08-11T10:28:33.187Z,4.75
2022-08-11T10:31:12.558Z,3.97
2022-08-11T10:34:04.354Z,3.60
2022-08-11T10:36:36.177Z,4.22
2022-08-11T10:39:08.229Z,4.30
2022-08-11T10:42:03.568Z,4.97
2022-08-11T10:44:41.817Z,3.88
2022-08-11T10:47:33.890Z,4.30
2022-08-11T10:50:25.939Z,4.10
2022-08-11T10:53:17.162Z,4.20
2022-08-11T10:56:08.271Z,4.13
2022-08-11T10:58:49.983Z,4.75
2022-08-11T11:01:30.914Z,4.47
2022-08-11T11:04:03.039Z,4.60
2022-08-11T11:06:38.354Z,8.13
2022-08-11T11:09:12.019Z,10.45
2022-08-11T11:12:04.968Z,6.28
2022-08-11T11:14:58.983Z,5.90
2022-08-11T11:18:03.417Z,4.60
2022-08-11T11:20:47.491Z,4.65
2022-08-11T11:23:26.139Z,4.70
2022-08-11T11:26:18.650Z,5.53
2022-08-11T11:29:06.499Z,7.15
2022-08-11T11:31:50.774Z,7.32
2022-08-11T11:34:52.827Z,4.88
2022-08-11T11:37:32.338Z,4.95
2022-08-11T11:40:12.339Z,6.13
2022-08-11T11:42:48.411Z,5.70
2022-08-11T11:45:24.904Z,5.30
2022-08-11T11:48:11.611Z,5.45
2022-08-11T11:50:48.175Z,5.18
2022-08-11T11:53:19.927Z,5.05
2022-08-11T11:55:53.556Z,7.15
2022-08-11T11:58:45.019Z,7.78
2022-08-11T12:01:22.013Z,8.30
2022-08-11T12:03:57.681Z,14.18
2022-08-11T12:06:29.896Z,8.27
2022-08-11T12:09:03.430Z,11.80
2022-08-11T12:11:57.913Z,10.50
2022-08-11T12:14:35.137Z,7.40
2022-08-11T12:17:09.230Z,8.32
2022-08-11T12:19:41.561Z,9.60
2022-08-11T12:22:43.163Z,7.90
2022-08-11T12:25:35.089Z,7.32
2022-08-11T12:28:17.205Z,6.07
2022-08-11T12:30:53.733Z,6.35
2022-08-11T12:33:27.436Z,6.15
2022-08-11T12:36:02.473Z,7.47
2022-08-11T12:38:40.872Z,7.32
2022-08-11T12:41:32.242Z,6.68
2022-08-11T12:44:27.709Z,6.35
2022-08-11T12:47:06.164Z,6.45
2022-08-11T12:49:59.031Z,6.57
2022-08-11T12:52:36.433Z,7.40
2022-08-11T12:56:03.919Z,6.43
2022-08-11T12:58:41.780Z,5.82
2022-08-11T13:01:37.446Z,5.38
2022-08-11T13:04:30.377Z,6.22
2022-08-11T13:07:05.139Z,6.55
2022-08-11T13:09:43.475Z,5.57
2022-08-11T13:12:37.517Z,4.95
2022-08-11T13:15:12.365Z,6.43
2022-08-11T13:17:47.784Z,6.97
2022-08-11T13:20:31.759Z,6.93
2022-08-11T13:23:06.843Z,6.35
2022-08-11T13:25:41.546Z,8.57
2022-08-11T13:28:14.523Z,6.55
2022-08-11T13:31:10.765Z,6.30
2022-08-11T13:33:45.635Z,6.50
2022-08-11T13:36:27.742Z,6.18
2022-08-11T13:39:00.460Z,6.15
2022-08-11T13:41:42.184Z,7.13
2022-08-11T13:44:25.302Z,6.38
2022-08-11T13:47:12.468Z,5.60
2022-08-11T13:49:47.525Z,5.85
2022-08-11T13:52:21.051Z,5.70
2022-08-11T13:55:05.170Z,5.47
2022-08-11T13:58:08.353Z,5.93
2022-08-11T14:00:52.743Z,5.97
2022-08-11T14:04:29.231Z,6.22
2022-08-11T14:06:25.456Z,6.50
2022-08-11T14:09:00.150Z,10.95
2022-08-11T14:12:22.612Z,12.52
2022-08-11T14:14:51.117Z,14.55
2022-08-11T14:17:40.014Z,11.75
2022-08-11T14:20:39.759Z,14.00
2022-08-11T14:23:16.190Z,8.25
2022-08-11T14:26:12.602Z,7.30
2022-08-11T14:28:47.607Z,6.45
2022-08-11T14:31:29.777Z,6.05
2022-08-11T14:34:06.628Z,5.70
2022-08-11T14:36:38.039Z,31.70
2022-08-11T14:39:14.247Z,9.15
2022-08-11T14:42:13.223Z,7.18
2022-08-11T14:45:04.979Z,6.50
2022-08-11T14:47:37.718Z,7.10
2022-08-11T14:50:11.239Z,7.82
2022-08-11T14:52:51.575Z,8.10
2022-08-11T14:55:42.759Z,9.57
2022-08-11T14:58:13.769Z,9.70
2022-08-11T15:00:45.981Z,10.30
2022-08-11T15:03:19.015Z,8.88
2022-08-11T15:05:56.813Z,9.95
2022-08-11T15:08:50.806Z,8.18
2022-08-11T15:11:41.821Z,7.40
2022-08-11T15:14:12.916Z,8.38
2022-08-11T15:17:04.191Z,8.52
2022-08-11T15:19:40.583Z,8.68
2022-08-11T15:22:32.264Z,8.40
2022-08-11T15:25:02.399Z,8.40
2022-08-11T15:27:52.855Z,8.68
2022-08-11T15:30:44.013Z,9.07
2022-08-11T15:33:34.440Z,9.35
2022-08-11T15:36:25.927Z,9.93
2022-08-11T15:39:07.000Z,13.02
2022-08-11T15:42:01.979Z,11.50
2022-08-11T15:45:03.714Z,9.80
2022-08-11T15:47:41.708Z,10.50
2022-08-11T15:50:16.705Z,9.52
2022-08-11T15:52:52.024Z,9.93
2022-08-11T15:55:22.990Z,11.02
2022-08-11T15:58:13.466Z,11.05
2022-08-11T16:01:08.860Z,9.90
2022-08-11T16:04:08.476Z,10.23
2022-08-11T16:06:47.730Z,9.95
2022-08-11T16:09:36.192Z,9.77
2022-08-11T16:12:21.665Z,9.90
2022-08-11T16:15:20.128Z,9.88
2022-08-11T16:17:58.650Z,9.98
2022-08-11T16:20:29.438Z,9.25
2022-08-11T16:23:02.848Z,9.95
2022-08-11T16:27:06.117Z,10.75
2022-08-11T16:28:28.190Z,9.85
2022-08-11T16:30:59.370Z,10.82
2022-08-11T16:33:49.533Z,9.85
2022-08-11T16:36:41.856Z,10.60
2022-08-11T16:39:13.623Z,10.10
2022-08-11T16:42:04.976Z,10.50
2022-08-11T16:44:55.353Z,10.98
2022-08-11T16:48:02.231Z,9.90
2022-08-11T16:50:18.281Z,10.68
2022-08-11T16:52:48.685Z,9.38
2022-08-11T16:55:52.501Z,10.00
2022-08-11T16:58:29.236Z,10.00
2022-08-11T17:01:02.589Z,10.05
2022-08-11T17:03:52.869Z,9.85
2022-08-11T17:06:42.584Z,9.80
2022-08-11T17:09:33.539Z,10.13
2022-08-11T17:12:23.830Z,9.20
2022-08-11T17:14:59.538Z,10.27
2022-08-11T17:17:31.367Z,9.60
2022-08-11T17:20:40.257Z,9.07
2022-08-11T17:23:15.671Z,9.23
2022-08-11T17:25:59.400Z,9.57
2022-08-11T17:28:37.397Z,8.98
2022-08-11T17:31:27.600Z,9.07
2022-08-11T17:34:18.690Z,9.23
2022-08-11T17:36:52.889Z,9.75
2022-08-11T17:39:24.107Z,8.70
2022-08-11T17:42:14.612Z,8.98
2022-08-11T17:45:04.856Z,9.15
2022-08-11T17:47:56.432Z,9.57
2022-08-11T17:50:27.591Z,9.18
2022-08-11T17:53:18.010Z,9.55
2022-08-11T17:56:09.193Z,9.50
2022-08-11T17:59:00.646Z,9.02
2022-08-11T18:01:35.342Z,8.75
2022-08-11T18:04:07.805Z,9.73
2022-08-11T18:06:38.749Z,9.90
2022-08-11T18:09:36.748Z,9.68
2022-08-11T18:12:28.445Z,9.25
2022-08-11T18:15:19.407Z,9.40
2022-08-11T18:18:09.440Z,9.27
2022-08-11T18:20:59.762Z,8.52
2022-08-11T18:23:49.897Z,9.48
2022-08-11T18:26:41.725Z,9.50
2022-08-11T18:29:32.156Z,8.85
2022-08-11T18:32:49.166Z,7.90
2022-08-11T18:35:40.892Z,8.65
2022-08-11T18:38:35.519Z,8.35
2022-08-11T18:41:27.880Z,7.97
2022-08-11T18:44:20.007Z,7.53
2022-08-11T18:47:12.450Z,7.90
2022-08-11T18:50:05.754Z,8.90
2022-08-11T18:52:56.307Z,9.38
2022-08-11T18:55:46.895Z,8.25
2022-08-11T18:58:38.404Z,8.80
2022-08-11T19:01:29.892Z,7.90
2022-08-11T19:04:19.590Z,8.60
2022-08-11T19:07:12.114Z,8.30
2022-08-11T19:10:03.814Z,8.68
2022-08-11T19:12:57.254Z,8.50
2022-08-11T19:15:47.325Z,8.40
2022-08-11T19:18:39.380Z,8.55
2022-08-11T19:21:30.930Z,8.55
2022-08-11T19:24:22.529Z,8.98
2022-08-11T19:27:15.172Z,7.57
2022-08-11T19:30:13.093Z,7.20
2022-08-11T19:33:04.019Z,8.02
2022-08-11T19:35:53.976Z,7.30
2022-08-11T19:38:44.026Z,7.47
2022-08-11T19:41:56.483Z,7.60
2022-08-11T19:44:44.857Z,9.18
2022-08-11T19:47:35.094Z,11.98
2022-08-11T19:50:25.526Z,8.73
2022-08-11T19:53:16.973Z,8.07
2022-08-11T19:56:08.946Z,7.28
2022-08-11T19:59:00.165Z,8.90
2022-08-11T20:02:12.563Z,8.43
2022-08-11T20:05:00.502Z,8.52
2022-08-11T20:07:52.328Z,8.40
2022-08-11T20:10:43.065Z,7.65
2022-08-11T20:13:33.650Z,8.15
2022-08-11T20:16:25.022Z,7.53
2022-08-11T20:19:14.932Z,7.97
2022-08-11T20:22:08.407Z,7.43
2022-08-11T20:25:00.294Z,6.85
2022-08-11T20:27:55.105Z,7.53
2022-08-11T20:30:45.600Z,7.10
2022-08-11T20:33:35.656Z,7.78
2022-08-11T20:36:25.671Z,7.10
2022-08-11T20:39:16.353Z,7.28
2022-08-11T20:42:08.174Z,7.60
2022-08-11T20:44:59.105Z,7.65
2022-08-11T20:47:56.514Z,7.82
2022-08-11T20:50:50.718Z,6.97
2022-08-11T20:53:44.711Z,7.70
2022-08-11T20:56:35.352Z,7.22
2022-08-11T20:59:26.509Z,7.43
2022-08-11T21:02:17.277Z,7.10
2022-08-11T21:05:07.794Z,7.47
2022-08-11T21:08:07.465Z,7.20
2022-08-11T21:10:59.131Z,7.50
2022-08-11T21:13:52.411Z,7.70
2022-08-11T21:16:50.381Z,8.00
2022-08-11T21:19:59.798Z,7.38
2022-08-11T21:23:06.653Z,7.45
2022-08-11T21:25:59.347Z,7.18
2022-08-11T21:28:50.703Z,6.68
2022-08-11T21:31:41.660Z,7.10
2022-08-11T21:34:32.846Z,7.00
2022-08-11T21:37:27.034Z,8.32
2022-08-11T21:40:17.773Z,6.93
2022-08-11T21:43:09.789Z,6.45
2022-08-11T21:46:00.682Z,6.97
2022-08-11T21:48:51.184Z,7.63
2022-08-11T21:51:44.475Z,8.07
2022-08-11T21:54:34.767Z,8.10
2022-08-11T21:57:26.236Z,8.70
2022-08-11T22:00:17.970Z,8.32
2022-08-11T22:03:09.888Z,8.48
2022-08-11T22:06:00.189Z,9.35
2022-08-11T22:08:52.965Z,8.90
2022-08-11T22:11:43.357Z,9.25
2022-08-11T22:14:33.826Z,8.90
2022-08-11T22:17:24.070Z,7.55
2022-08-11T22:20:14.742Z,19.58
2022-08-11T22:23:05.904Z,20.50
2022-08-11T22:26:03.848Z,8.45
2022-08-11T22:28:57.135Z,8.27
2022-08-11T22:31:47.808Z,8.80
2022-08-11T22:34:45.015Z,8.90
2022-08-11T22:37:44.738Z,8.30
2022-08-11T22:40:34.794Z,8.05
2022-08-11T22:43:24.365Z,8.07
2022-08-11T22:46:14.136Z,7.93
2022-08-11T22:49:04.918Z,8.50
2022-08-11T22:51:56.217Z,7.47
2022-08-11T22:54:46.808Z,8.07
2022-08-11T22:57:37.858Z,8.65
2022-08-11T23:00:30.490Z,8.68
2022-08-11T23:03:36.924Z,8.32
2022-08-11T23:06:29.463Z,8.80
2022-08-11T23:09:19.479Z,8.75
2022-08-11T23:12:10.397Z,8.18
2022-08-11T23:15:01.563Z,10.30
2022-08-11T23:17:51.923Z,9.40
2022-08-11T23:20:49.351Z,8.73
2022-08-11T23:23:41.740Z,9.43
2022-08-11T23:26:32.683Z,10.05
2022-08-11T23:29:23.058Z,8.77
2022-08-11T23:32:13.751Z,9.48
2022-08-11T23:35:39.942Z,8.82
2022-08-11T23:38:17.576Z,9.05
2022-08-11T23:41:07.881Z,8.02
2022-08-11T23:43:58.126Z,8.90
2022-08-11T23:46:48.964Z,8.07
2022-08-11T23:49:39.119Z,7.78
2022-08-11T23:52:29.815Z,8.90
2022-08-11T23:55:20.177Z,7.07
2022-08-11T23:58:10.871Z,7.68
